createdAt,value
2023-02-28T21:31:13.342Z,2.80
2023-02-28T21:33:30.584Z,2.90
2023-02-28T21:36:54.980Z,2.80
2023-02-28T21:39:20.772Z,2.70
2023-02-28T21:45:20.349Z,2.50
2023-02-28T21:48:43.019Z,2.40
2023-02-28T21:58:40.337Z,2.10
2023-02-28T22:00:49.306Z,2.20
2023-02-28T22:02:59.493Z,2.20
2023-02-28T22:05:15.271Z,2.20
2023-02-28T22:07:29.403Z,2.10
2023-02-28T22:10:00.282Z,2.10
2023-02-28T22:12:22.085Z,2.00
2023-02-28T22:14:47.715Z,2.10
2023-02-28T22:17:14.997Z,2.10
2023-02-28T22:25:23.972Z,2.00
2023-02-28T22:27:36.348Z,2.00
2023-02-28T22:29:58.088Z,2.00
2023-02-28T22:32:15.784Z,2.00
2023-02-28T22:34:28.523Z,2.00
2023-02-28T22:36:37.230Z,2.00
2023-02-28T22:38:47.256Z,2.00
2023-02-28T22:40:58.762Z,1.90
2023-02-28T22:43:07.978Z,1.90
2023-02-28T22:45:16.887Z,2.00
2023-02-28T22:47:27.117Z,2.00
2023-02-28T22:49:45.254Z,2.10
2023-02-28T22:51:57.009Z,2.00
2023-02-28T22:54:07.907Z,2.00
2023-02-28T22:56:18.540Z,2.00
2023-02-28T22:58:27.549Z,2.00
2023-02-28T23:00:36.374Z,2.10
2023-02-28T23:02:45.620Z,2.00
2023-02-28T23:04:56.685Z,2.10
2023-02-28T23:07:05.209Z,2.10
2023-02-28T23:09:18.387Z,2.20
2023-02-28T23:11:30.962Z,2.10
2023-02-28T23:13:41.919Z,2.10
2023-02-28T23:16:07.106Z,2.20
2023-02-28T23:18:21.338Z,2.10
2023-02-28T23:20:35.076Z,2.20
2023-02-28T23:22:50.620Z,2.00
2023-02-28T23:25:02.590Z,1.90
2023-02-28T23:27:17.882Z,1.80
2023-02-28T23:30:19.984Z,1.80
2023-02-28T23:32:28.746Z,1.90
2023-02-28T23:34:37.961Z,1.80
2023-02-28T23:37:07.078Z,1.80
2023-02-28T23:39:18.853Z,1.70
2023-02-28T23:41:28.044Z,1.80
2023-02-28T23:43:37.395Z,1.90
2023-02-28T23:45:46.965Z,1.90
2023-02-28T23:47:56.365Z,1.80
2023-02-28T23:50:05.091Z,1.70
2023-02-28T23:52:15.838Z,1.70
2023-02-28T23:54:24.867Z,1.70
2023-02-28T23:56:36.439Z,1.70
2023-02-28T23:58:58.540Z,1.70
